createdAt,value
2022-07-28T00:02:09.254Z,17.10
2022-07-28T00:04:38.464Z,17.07
2022-07-28T00:07:07.062Z,16.96
2022-07-28T00:09:36.326Z,16.90
2022-07-28T00:12:05.669Z,16.83
2022-07-28T00:14:34.774Z,16.76
2022-07-28T00:17:03.418Z,16.72
2022-07-28T00:19:33.717Z,16.71
2022-07-28T00:22:02.880Z,16.63
2022-07-28T00:24:32.232Z,16.57
2022-07-28T00:27:01.606Z,16.49
2022-07-28T00:29:49.770Z,16.43
2022-07-28T00:32:20.710Z,16.32
2022-07-28T00:34:53.551Z,16.25
2022-07-28T00:37:22.415Z,16.24
2022-07-28T00:39:54.207Z,16.21
2022-07-28T00:42:23.417Z,16.21
2022-07-28T00:44:52.154Z,16.15
2022-07-28T00:47:20.961Z,16.12
2022-07-28T00:49:51.628Z,16.06
2022-07-28T00:52:20.960Z,16.00
2022-07-28T00:54:50.518Z,15.91
2022-07-28T00:57:21.286Z,15.85
2022-07-28T00:59:50.424Z,15.78
2022-07-28T01:02:19.418Z,15.72
2022-07-28T01:04:50.557Z,15.67
2022-07-28T01:07:30.903Z,15.66
2022-07-28T01:10:07.671Z,15.56
2022-07-28T01:12:50.565Z,15.47
2022-07-28T01:15:31.520Z,15.40
2022-07-28T01:18:07.203Z,15.33
2022-07-28T01:20:41.278Z,15.30
2022-07-28T01:23:30.596Z,15.27
2022-07-28T01:26:15.141Z,15.27
2022-07-28T01:29:00.748Z,15.29
2022-07-28T01:31:38.171Z,15.31
2022-07-28T01:34:10.756Z,15.34
2022-07-28T01:36:44.524Z,15.30
2022-07-28T01:39:15.438Z,15.31
2022-07-28T01:41:46.627Z,15.28
2022-07-28T01:44:21.496Z,15.24
2022-07-28T01:46:58.961Z,15.19
2022-07-28T01:49:30.999Z,15.17
2022-07-28T01:52:02.588Z,15.13
2022-07-28T01:54:33.622Z,15.09
2022-07-28T01:57:03.474Z,15.06
2022-07-28T01:59:33.386Z,15.02
2022-07-28T02:02:04.559Z,15.00
2022-07-28T02:04:34.618Z,14.98
2022-07-28T02:07:05.849Z,14.93
2022-07-28T02:09:36.845Z,14.91
2022-07-28T02:12:07.664Z,14.92
2022-07-28T02:14:38.539Z,14.89
2022-07-28T02:17:12.715Z,14.83
2022-07-28T02:19:43.218Z,14.75
2022-07-28T02:22:13.761Z,14.65
2022-07-28T02:24:44.863Z,14.62
2022-07-28T02:27:23.882Z,14.54
2022-07-28T02:29:58.617Z,14.50
2022-07-28T02:32:33.627Z,14.45
2022-07-28T02:35:09.737Z,14.42
2022-07-28T02:37:41.506Z,14.37
2022-07-28T02:40:13.909Z,14.28
2022-07-28T02:42:45.504Z,14.19
2022-07-28T02:45:16.702Z,14.14
2022-07-28T02:47:50.343Z,14.08
2022-07-28T02:50:23.985Z,14.02
2022-07-28T02:52:55.870Z,13.92
2022-07-28T02:55:26.365Z,13.83
2022-07-28T02:57:56.958Z,13.74
2022-07-28T03:00:26.311Z,13.69
2022-07-28T03:02:58.593Z,13.60
2022-07-28T03:05:28.996Z,13.52
2022-07-28T03:07:59.688Z,13.41
2022-07-28T03:10:33.491Z,13.29
2022-07-28T03:13:05.521Z,13.16
2022-07-28T03:15:35.499Z,13.07
2022-07-28T03:18:06.637Z,12.98
2022-07-28T03:20:36.282Z,12.94
2022-07-28T03:23:05.772Z,12.90
2022-07-28T03:25:42.893Z,12.82
2022-07-28T03:28:17.954Z,12.80
2022-07-28T03:30:49.732Z,12.80
2022-07-28T03:33:20.722Z,12.80
2022-07-28T03:35:53.445Z,12.79
2022-07-28T03:38:25.235Z,12.80
2022-07-28T03:40:55.653Z,12.78
2022-07-28T03:43:28.755Z,12.74
2022-07-28T03:45:58.279Z,12.69
2022-07-28T03:48:31.699Z,12.67
2022-07-28T03:51:00.741Z,12.65
2022-07-28T03:53:30.896Z,12.67
2022-07-28T03:55:59.772Z,12.69
2022-07-28T03:58:29.866Z,12.77
2022-07-28T04:00:59.282Z,12.88
2022-07-28T04:03:42.479Z,12.98
2022-07-28T04:06:18.358Z,13.05
2022-07-28T04:08:48.149Z,13.12
2022-07-28T04:11:17.387Z,13.19
2022-07-28T04:13:49.163Z,13.23
2022-07-28T04:16:18.214Z,13.25
2022-07-28T04:18:47.663Z,13.32
2022-07-28T04:21:18.377Z,13.36
2022-07-28T04:23:51.058Z,13.46
2022-07-28T04:26:20.936Z,13.54
2022-07-28T04:28:50.251Z,13.64
2022-07-28T04:31:19.230Z,13.75
2022-07-28T04:33:48.684Z,13.84
2022-07-28T04:36:19.949Z,13.95
2022-07-28T04:38:49.249Z,14.05
2022-07-28T04:41:18.742Z,14.11
2022-07-28T04:43:47.962Z,14.21
2022-07-28T04:46:17.370Z,14.30
2022-07-28T04:48:46.489Z,14.42
2022-07-28T04:51:16.066Z,14.52
2022-07-28T04:53:47.701Z,14.64
2022-07-28T04:56:17.237Z,14.74
2022-07-28T04:58:46.478Z,14.86
2022-07-28T05:01:17.512Z,14.99
2022-07-28T05:03:46.611Z,15.13
2022-07-28T05:06:18.851Z,15.24
2022-07-28T05:08:50.282Z,15.32
2022-07-28T05:11:19.710Z,15.39
2022-07-28T05:13:50.059Z,15.45
2022-07-28T05:16:20.753Z,15.50
2022-07-28T05:18:50.101Z,15.61
2022-07-28T05:21:22.364Z,15.72
2022-07-28T05:23:52.957Z,15.88
2022-07-28T05:26:27.305Z,15.98
2022-07-28T05:28:57.514Z,16.22
2022-07-28T05:31:26.465Z,16.44
2022-07-28T05:33:57.967Z,16.63
2022-07-28T05:36:27.041Z,16.77
2022-07-28T05:39:01.414Z,16.85
2022-07-28T05:41:30.625Z,16.92
2022-07-28T05:44:01.697Z,16.98
2022-07-28T05:46:33.538Z,17.06
2022-07-28T05:49:03.644Z,17.15
2022-07-28T05:51:41.298Z,17.31
2022-07-28T05:54:12.655Z,17.52
2022-07-28T05:56:50.045Z,17.67
2022-07-28T05:59:19.520Z,17.86
2022-07-28T06:01:49.142Z,18.08
2022-07-28T06:04:28.331Z,18.30
2022-07-28T06:06:57.703Z,18.48
2022-07-28T06:09:28.255Z,18.63
2022-07-28T06:11:57.250Z,18.75
2022-07-28T06:14:26.146Z,18.86
2022-07-28T06:16:54.806Z,18.94
2022-07-28T06:19:23.581Z,19.07
2022-07-28T06:21:53.823Z,19.20
2022-07-28T06:24:22.578Z,19.35
2022-07-28T06:26:53.566Z,19.47
2022-07-28T06:29:23.505Z,19.51
2022-07-28T06:31:52.344Z,19.57
2022-07-28T06:34:23.011Z,19.65
2022-07-28T06:36:52.193Z,19.79
2022-07-28T06:39:21.140Z,19.88
2022-07-28T06:41:50.383Z,20.00
2022-07-28T06:44:23.739Z,20.11
2022-07-28T06:46:54.313Z,20.20
2022-07-28T06:49:24.517Z,20.32
2022-07-28T06:51:53.926Z,20.41
2022-07-28T06:54:22.655Z,20.57
2022-07-28T06:56:54.270Z,20.63
2022-07-28T06:59:25.492Z,20.72
2022-07-28T07:01:55.756Z,20.79
2022-07-28T07:04:24.414Z,20.84
2022-07-28T07:06:55.145Z,20.93
2022-07-28T07:09:24.349Z,21.01
2022-07-28T07:11:53.373Z,21.07
2022-07-28T07:14:22.255Z,21.15
2022-07-28T07:16:52.366Z,21.23
2022-07-28T07:19:21.994Z,21.30
2022-07-28T07:21:51.133Z,21.43
2022-07-28T07:24:23.558Z,21.53
2022-07-28T07:26:52.416Z,21.56
2022-07-28T07:29:23.138Z,21.60
2022-07-28T07:31:53.875Z,21.64
2022-07-28T07:34:22.834Z,21.78
2022-07-28T07:36:51.826Z,21.89
2022-07-28T07:39:20.746Z,21.93
2022-07-28T07:41:50.151Z,21.99
2022-07-28T07:44:19.278Z,22.31
2022-07-28T07:46:49.067Z,22.29
2022-07-28T07:49:22.527Z,22.14
2022-07-28T07:51:51.371Z,22.16
2022-07-28T07:54:21.678Z,22.27
2022-07-28T07:56:50.572Z,22.38
2022-07-28T07:59:19.500Z,22.37
2022-07-28T08:01:54.409Z,22.46
2022-07-28T08:04:25.551Z,22.62
2022-07-28T08:06:54.926Z,22.71
2022-07-28T08:09:23.982Z,22.67
2022-07-28T08:11:53.179Z,22.66
2022-07-28T08:14:21.929Z,22.71
2022-07-28T08:16:50.767Z,22.83
2022-07-28T08:19:21.392Z,22.99
2022-07-28T08:21:53.046Z,23.11
2022-07-28T08:24:29.024Z,23.36
2022-07-28T08:27:02.827Z,23.58
2022-07-28T08:29:32.024Z,23.70
2022-07-28T08:32:01.621Z,23.68
2022-07-28T08:34:33.770Z,23.94
2022-07-28T08:39:36.235Z,24.19
2022-07-28T08:42:08.423Z,24.20
2022-07-28T08:44:47.276Z,24.23
2022-07-28T08:47:17.602Z,24.32
2022-07-28T08:49:50.000Z,24.19
2022-07-28T08:52:22.329Z,24.06
2022-07-28T08:54:52.171Z,24.13
2022-07-28T08:57:24.169Z,24.18
2022-07-28T08:59:53.842Z,24.33
2022-07-28T09:02:26.427Z,24.48
2022-07-28T09:04:56.156Z,24.62
2022-07-28T09:07:27.814Z,24.68
2022-07-28T09:09:57.407Z,24.74
2022-07-28T09:12:31.821Z,24.89
2022-07-28T09:15:03.406Z,25.12
2022-07-28T09:17:33.901Z,25.28
2022-07-28T09:20:06.256Z,25.44
2022-07-28T09:22:57.993Z,25.57
2022-07-28T09:25:27.424Z,25.58
2022-07-28T09:27:56.833Z,25.65
2022-07-28T09:30:34.096Z,25.76
2022-07-28T09:33:40.975Z,25.69
2022-07-28T09:36:16.010Z,25.90
2022-07-28T09:38:46.773Z,26.19
2022-07-28T09:41:19.070Z,26.42
2022-07-28T09:43:54.068Z,26.57
2022-07-28T09:46:25.504Z,26.46
2022-07-28T09:48:58.115Z,26.37
2022-07-28T09:51:29.659Z,26.36
2022-07-28T09:54:14.818Z,26.34
2022-07-28T09:56:45.224Z,26.43
2022-07-28T09:59:16.178Z,26.39
2022-07-28T10:01:54.292Z,26.40
2022-07-28T10:04:34.503Z,26.57
2022-07-28T10:07:07.287Z,26.87
2022-07-28T10:09:39.181Z,27.12
2022-07-28T10:12:19.802Z,27.16
2022-07-28T10:14:50.552Z,27.20
2022-07-28T10:17:28.268Z,27.37
2022-07-28T10:19:58.935Z,27.36
2022-07-28T10:22:30.562Z,27.21
2022-07-28T10:25:03.696Z,26.96
2022-07-28T10:27:33.999Z,26.75
2022-07-28T10:30:05.099Z,26.87
2022-07-28T10:32:39.828Z,27.24
2022-07-28T10:35:12.235Z,27.43
2022-07-28T10:37:48.140Z,27.49
2022-07-28T10:40:23.746Z,27.60
2022-07-28T10:42:54.655Z,27.82
2022-07-28T10:45:41.957Z,27.75
2022-07-28T10:48:14.349Z,27.79
2022-07-28T10:50:43.345Z,27.83
2022-07-28T10:53:20.733Z,27.76
2022-07-28T10:55:56.589Z,27.55
2022-07-28T10:58:39.897Z,27.55
2022-07-28T11:01:26.738Z,27.62
2022-07-28T11:03:59.555Z,27.65
2022-07-28T11:06:30.993Z,27.67
2022-07-28T11:09:21.983Z,27.91
2022-07-28T11:11:54.683Z,27.82
2022-07-28T11:14:37.598Z,27.54
2022-07-28T11:17:33.621Z,27.74
2022-07-28T11:22:54.226Z,27.68
2022-07-28T11:25:23.223Z,27.82
2022-07-28T11:28:06.539Z,27.90
2022-07-28T11:30:55.255Z,27.98
2022-07-28T11:33:27.710Z,28.24
2022-07-28T11:35:59.314Z,28.20
2022-07-28T11:38:29.916Z,28.23
2022-07-28T11:40:59.503Z,28.46
2022-07-28T11:43:38.886Z,28.30
2022-07-28T11:46:29.333Z,28.37
2022-07-28T11:49:26.251Z,28.58
2022-07-28T11:52:15.350Z,28.73
2022-07-28T11:54:51.260Z,28.74
2022-07-28T11:57:21.476Z,28.75
2022-07-28T11:59:54.817Z,28.94
2022-07-28T12:02:26.211Z,29.06
2022-07-28T12:05:04.275Z,29.24
2022-07-28T12:07:36.071Z,29.32
2022-07-28T12:10:53.505Z,29.32
2022-07-28T12:13:13.806Z,29.11
2022-07-28T12:15:52.346Z,29.17
2022-07-28T12:18:21.108Z,29.08
2022-07-28T12:20:55.449Z,29.25
2022-07-28T12:23:44.136Z,28.94
2022-07-28T12:26:31.740Z,29.01
2022-07-28T12:29:01.433Z,29.07
2022-07-28T12:31:33.432Z,28.84
2022-07-28T12:34:02.434Z,28.75
2022-07-28T12:36:31.800Z,28.58
2022-07-28T12:39:01.618Z,28.58
2022-07-28T12:41:34.857Z,28.52
2022-07-28T12:44:06.585Z,28.56
2022-07-28T12:46:36.950Z,28.38
2022-07-28T12:49:05.864Z,28.38
2022-07-28T12:51:36.636Z,28.58
2022-07-28T12:54:07.817Z,28.79
2022-07-28T12:56:47.130Z,28.79
2022-07-28T12:59:18.544Z,28.85
2022-07-28T13:01:50.580Z,28.73
2022-07-28T13:04:42.718Z,28.68
2022-07-28T13:07:14.304Z,28.55
2022-07-28T13:09:53.269Z,28.47
2022-07-28T13:12:31.810Z,28.24
2022-07-28T13:15:07.214Z,27.95
2022-07-28T13:17:53.570Z,27.81
2022-07-28T13:20:24.405Z,27.68
2022-07-28T13:22:56.399Z,27.60
2022-07-28T13:25:25.569Z,27.49
2022-07-28T13:27:55.640Z,27.46
2022-07-28T13:30:24.922Z,27.44
2022-07-28T13:32:56.783Z,27.51
2022-07-28T13:35:26.440Z,27.91
2022-07-28T13:37:55.262Z,27.89
2022-07-28T13:40:24.330Z,27.63
2022-07-28T13:42:57.120Z,27.30
2022-07-28T13:45:30.179Z,27.16
2022-07-28T13:48:00.746Z,26.94
2022-07-28T13:50:30.282Z,26.80
2022-07-28T13:52:59.510Z,26.85
2022-07-28T13:55:28.454Z,27.27
2022-07-28T13:57:57.035Z,27.57
2022-07-28T14:00:25.834Z,27.86
2022-07-28T14:02:56.150Z,27.86
2022-07-28T14:05:32.108Z,27.76
2022-07-28T14:08:02.837Z,27.40
2022-07-28T14:10:31.578Z,27.15
2022-07-28T14:13:01.600Z,26.92
2022-07-28T14:15:30.148Z,26.64
2022-07-28T14:17:59.362Z,26.48
2022-07-28T14:20:29.793Z,26.24
2022-07-28T14:22:59.168Z,26.09
2022-07-28T14:25:27.955Z,26.09
2022-07-28T14:27:57.069Z,26.05
2022-07-28T14:30:27.485Z,25.94
2022-07-28T14:32:58.379Z,25.75
2022-07-28T14:35:29.545Z,25.63
2022-07-28T14:38:42.460Z,25.51
2022-07-28T14:40:47.728Z,25.54
2022-07-28T14:43:16.721Z,25.72
2022-07-28T14:45:51.420Z,25.77
2022-07-28T14:48:35.005Z,25.71
2022-07-28T14:51:06.381Z,25.65
2022-07-28T14:53:35.164Z,25.45
2022-07-28T14:56:14.428Z,25.22
2022-07-28T14:58:43.684Z,25.08
2022-07-28T15:01:12.577Z,24.99
2022-07-28T15:03:43.494Z,24.97
2022-07-28T15:06:13.842Z,25.06
2022-07-28T15:08:43.108Z,25.34
2022-07-28T15:11:11.782Z,25.59
2022-07-28T15:13:40.768Z,25.77
2022-07-28T15:16:10.106Z,25.86
2022-07-28T15:18:38.961Z,25.82
2022-07-28T15:21:08.687Z,25.82
2022-07-28T15:23:40.327Z,25.64
2022-07-28T15:26:10.469Z,25.52
2022-07-28T15:28:39.490Z,25.38
2022-07-28T15:31:08.989Z,25.29
2022-07-28T15:33:47.836Z,25.21
2022-07-28T15:36:17.495Z,25.17
2022-07-28T15:38:48.964Z,25.16
2022-07-28T15:41:20.630Z,25.11
2022-07-28T15:43:49.822Z,25.05
2022-07-28T15:46:18.659Z,24.97
2022-07-28T15:48:48.239Z,24.94
2022-07-28T15:51:18.549Z,24.90
2022-07-28T15:53:56.535Z,24.87
2022-07-28T15:56:26.493Z,24.85
2022-07-28T15:58:55.435Z,24.84
2022-07-28T16:01:24.567Z,24.78
2022-07-28T16:03:53.629Z,24.81
2022-07-28T16:06:23.386Z,24.84
2022-07-28T16:08:53.919Z,24.91
2022-07-28T16:11:22.671Z,24.89
2022-07-28T16:13:52.576Z,24.78
2022-07-28T16:16:21.450Z,24.66
2022-07-28T16:18:50.221Z,24.55
2022-07-28T16:21:19.010Z,24.47
2022-07-28T16:23:47.603Z,24.47
2022-07-28T16:26:17.548Z,24.39
2022-07-28T16:28:47.200Z,24.32
2022-07-28T16:31:16.822Z,24.30
2022-07-28T16:33:46.444Z,24.21
2022-07-28T16:36:15.437Z,24.15
2022-07-28T16:38:44.783Z,24.11
2022-07-28T16:41:16.201Z,24.07
2022-07-28T16:43:46.882Z,24.02
2022-07-28T16:46:17.330Z,23.99
2022-07-28T16:48:46.380Z,23.91
2022-07-28T16:51:15.067Z,23.85
2022-07-28T16:53:44.006Z,23.77
2022-07-28T16:56:17.549Z,23.71
2022-07-28T16:58:49.404Z,23.63
2022-07-28T17:01:18.349Z,23.58
2022-07-28T17:03:48.428Z,23.48
2022-07-28T17:06:17.390Z,23.46
2022-07-28T17:08:46.119Z,23.40
2022-07-28T17:11:14.708Z,23.39
2022-07-28T17:13:45.398Z,23.33
2022-07-28T17:16:15.979Z,23.27
2022-07-28T17:18:45.870Z,23.20
2022-07-28T17:21:14.547Z,23.15
2022-07-28T17:23:43.334Z,23.11
2022-07-28T17:29:01.905Z,23.02
2022-07-28T17:31:33.882Z,22.96
2022-07-28T17:34:02.674Z,22.90
2022-07-28T17:36:35.437Z,22.83
2022-07-28T17:39:07.170Z,22.76
2022-07-28T17:41:36.000Z,22.69
2022-07-28T17:44:05.877Z,22.61
2022-07-28T17:46:36.480Z,22.52
2022-07-28T17:49:08.246Z,22.40
2022-07-28T17:51:37.648Z,22.32
2022-07-28T17:54:06.648Z,22.27
2022-07-28T17:56:37.744Z,22.18
2022-07-28T17:59:08.765Z,22.07
2022-07-28T18:01:42.386Z,21.98
2022-07-28T18:04:14.487Z,21.85
2022-07-28T18:06:44.915Z,21.73
2022-07-28T18:09:14.993Z,21.57
2022-07-28T18:11:56.784Z,21.41
2022-07-28T18:14:28.350Z,21.26
2022-07-28T18:16:59.470Z,21.12
2022-07-28T18:19:29.243Z,20.95
2022-07-28T18:21:58.427Z,20.75
2022-07-28T18:24:27.299Z,20.58
2022-07-28T18:26:57.557Z,20.44
2022-07-28T18:29:38.408Z,20.33
2022-07-28T18:32:12.456Z,20.23
2022-07-28T18:34:41.825Z,20.17
2022-07-28T18:37:10.679Z,20.05
2022-07-28T18:39:39.523Z,19.95
2022-07-28T18:42:08.659Z,19.90
2022-07-28T18:44:37.411Z,19.75
2022-07-28T18:47:06.541Z,19.65
2022-07-28T18:49:37.288Z,19.58
2022-07-28T18:52:07.130Z,19.55
2022-07-28T18:54:37.231Z,19.56
2022-07-28T18:57:05.886Z,19.54
2022-07-28T18:59:37.783Z,19.47
2022-07-28T19:02:11.008Z,19.36
2022-07-28T19:04:41.987Z,19.19
2022-07-28T19:07:11.304Z,19.01
2022-07-28T19:09:40.306Z,18.83
2022-07-28T19:12:09.857Z,18.75
2022-07-28T19:14:39.007Z,18.66
2022-07-28T19:17:09.040Z,18.60
2022-07-28T19:19:37.985Z,18.52
2022-07-28T19:22:09.876Z,18.37
2022-07-28T19:24:39.156Z,18.20
2022-07-28T19:27:08.089Z,18.08
2022-07-28T19:29:37.378Z,17.99
2022-07-28T19:32:08.225Z,17.92
2022-07-28T19:34:36.908Z,17.87
2022-07-28T19:37:07.321Z,17.81
2022-07-28T19:39:38.803Z,17.71
2022-07-28T19:42:15.441Z,17.53
2022-07-28T19:44:46.449Z,17.36
2022-07-28T19:47:15.641Z,17.22
2022-07-28T19:49:44.750Z,17.10
2022-07-28T19:52:15.007Z,17.01
2022-07-28T19:54:43.503Z,16.92
2022-07-28T19:57:20.154Z,16.84
2022-07-28T19:59:48.950Z,16.77
2022-07-28T20:02:17.788Z,16.71
2022-07-28T20:04:46.660Z,16.60
2022-07-28T20:07:16.787Z,16.50
2022-07-28T20:09:46.190Z,16.35
2022-07-28T20:12:15.189Z,16.25
2022-07-28T20:14:44.498Z,16.17
2022-07-28T20:17:24.586Z,16.09
2022-07-28T20:20:02.385Z,16.00
2022-07-28T20:22:32.413Z,15.91
2022-07-28T20:25:01.123Z,15.80
2022-07-28T20:27:29.796Z,15.74
2022-07-28T20:29:59.401Z,15.76
2022-07-28T20:32:28.561Z,15.70
2022-07-28T20:34:58.318Z,15.65
2022-07-28T20:37:36.679Z,15.59
2022-07-28T20:40:12.086Z,15.46
2022-07-28T20:42:41.195Z,15.36
2022-07-28T20:45:10.606Z,15.29
2022-07-28T20:47:40.206Z,15.26
2022-07-28T20:50:09.505Z,15.22
2022-07-28T20:52:39.441Z,15.16
2022-07-28T20:55:11.461Z,15.17
2022-07-28T20:57:40.349Z,15.23
2022-07-28T21:00:10.379Z,15.24
2022-07-28T21:02:41.805Z,15.17
2022-07-28T21:05:22.816Z,15.08
2022-07-28T21:08:05.239Z,14.94
2022-07-28T21:10:38.051Z,14.80
2022-07-28T21:13:06.800Z,14.75
2022-07-28T21:15:35.752Z,14.74
2022-07-28T21:18:04.871Z,14.76
2022-07-28T21:20:33.771Z,14.75
2022-07-28T21:23:03.140Z,14.76
2022-07-28T21:25:32.111Z,14.72
2022-07-28T21:28:19.275Z,14.62
2022-07-28T21:30:48.104Z,14.53
2022-07-28T21:33:22.411Z,14.48
2022-07-28T21:35:51.993Z,14.43
2022-07-28T21:38:22.005Z,14.41
2022-07-28T21:40:51.001Z,14.35
2022-07-28T21:43:21.423Z,14.30
2022-07-28T21:45:50.789Z,14.26
2022-07-28T21:48:23.439Z,14.21
2022-07-28T21:50:52.944Z,14.18
2022-07-28T21:53:22.685Z,14.09
2022-07-28T21:55:53.045Z,14.01
2022-07-28T21:58:23.476Z,13.91
2022-07-28T22:00:53.059Z,13.83
2022-07-28T22:03:22.199Z,13.77
2022-07-28T22:05:51.147Z,13.68
2022-07-28T22:08:19.948Z,13.69
2022-07-28T22:10:48.740Z,13.64
2022-07-28T22:13:19.077Z,13.59
2022-07-28T22:15:49.435Z,13.54
2022-07-28T22:18:18.259Z,13.51
2022-07-28T22:20:49.194Z,13.49
2022-07-28T22:23:28.761Z,13.46
2022-07-28T22:25:58.285Z,13.40
2022-07-28T22:28:29.658Z,13.33
2022-07-28T22:31:08.756Z,13.29
2022-07-28T22:33:39.166Z,13.26
2022-07-28T22:36:09.423Z,13.25
2022-07-28T22:38:38.329Z,13.25
2022-07-28T22:41:07.053Z,13.24
2022-07-28T22:43:35.994Z,13.23
2022-07-28T22:46:06.200Z,13.21
2022-07-28T22:48:34.946Z,13.19
2022-07-28T22:51:03.600Z,13.16
2022-07-28T22:53:32.246Z,13.15
2022-07-28T22:56:01.216Z,13.14
2022-07-28T22:58:29.819Z,13.09
2022-07-28T23:00:59.717Z,13.00
2022-07-28T23:03:31.305Z,12.93
2022-07-28T23:06:01.014Z,12.85
2022-07-28T23:08:29.929Z,12.83
2022-07-28T23:10:59.202Z,12.82
2022-07-28T23:13:27.772Z,12.79
2022-07-28T23:15:56.784Z,12.75
2022-07-28T23:18:25.272Z,12.71
2022-07-28T23:20:56.368Z,12.68
2022-07-28T23:23:25.013Z,12.67
2022-07-28T23:25:53.876Z,12.65
2022-07-28T23:28:23.033Z,12.58
2022-07-28T23:30:52.182Z,12.49
2022-07-28T23:33:56.130Z,12.47
2022-07-28T23:36:16.841Z,12.45
2022-07-28T23:38:55.799Z,12.43
2022-07-28T23:41:25.266Z,12.40
2022-07-28T23:43:54.140Z,12.36
2022-07-28T23:46:23.087Z,12.30
2022-07-28T23:48:52.565Z,12.26
2022-07-28T23:51:32.022Z,12.26
2022-07-28T23:54:14.594Z,12.19
2022-07-28T23:56:58.593Z,12.18
2022-07-28T23:59:30.464Z,12.18
